KKLS/KLS METAR and TAF weather

Enter ICAO airport designator
Station Type Date Time Source
KKLS METAR 2021/09/28 17:15 UTC NOAA

KKLS 281715Z AUTO 16008KT 10SM BKN012 BKN029 OVC060 13/11 A3008 RMK AO2


Station Type Date Time Source
KKLS Decoded METAR 2021/09/28 17:15 UTC NOAA

Kelso, Kelso-Longview Airport, WA, United States (KKLS) 46-07N 122-54W
Sep 28, 2021 - 01:15 PM EDT / 2021.09.28 1715 UTC
Wind: from the SSE (160 degrees) at 9 MPH (8 KT):0
Visibility: 10 mile(s):0
Sky conditions: overcast
Temperature: 55 F (13 C)
Dew Point: 51 F (11 C)
Relative Humidity: 87%
Pressure (altimeter): 30.08 in. Hg (1018 hPa)
ob: KKLS 281715Z AUTO 16008KT 10SM BKN012 BKN029 OVC060 13/11 A3008 RMK AO2
cycle: 17

Station Type Date Time Source
KKLS TAF UTC NOAA

Error!

Example: see airport list